createdAt,value
2019-01-23T00:00:45.760Z,8.90
2019-01-23T00:01:33.037Z,7.20
2019-01-23T00:02:11.881Z,9.28
2019-01-23T00:02:50.436Z,7.90
2019-01-23T00:03:29.931Z,8.68
2019-01-23T00:04:09.214Z,11.57
2019-01-23T00:04:48.327Z,7.90
2019-01-23T00:05:27.816Z,11.88
2019-01-23T00:06:06.519Z,7.63
2019-01-23T00:06:45.215Z,8.18
2019-01-23T00:07:24.128Z,8.60
2019-01-23T00:08:02.779Z,8.03
2019-01-23T00:08:41.818Z,8.23
2019-01-23T00:09:20.605Z,8.48
2019-01-23T00:10:00.151Z,10.00
2019-01-23T00:10:39.435Z,12.20
2019-01-23T00:11:18.595Z,12.05
2019-01-23T00:11:58.142Z,8.87
2019-01-23T00:12:37.451Z,8.17
2019-01-23T00:13:16.887Z,8.40
2019-01-23T00:13:56.261Z,7.63
2019-01-23T00:14:34.994Z,7.77
2019-01-23T00:15:13.646Z,7.95
2019-01-23T00:15:52.407Z,8.90
2019-01-23T00:16:31.124Z,11.70
2019-01-23T00:17:10.294Z,9.90
2019-01-23T00:17:49.372Z,8.00
2019-01-23T00:18:29.345Z,10.70
2019-01-23T00:19:08.954Z,8.10
2019-01-23T00:19:48.163Z,8.53
2019-01-23T00:20:26.938Z,8.03
2019-01-23T00:21:05.637Z,9.20
2019-01-23T00:21:44.325Z,7.30
2019-01-23T00:22:23.148Z,8.95
2019-01-23T00:23:02.266Z,8.50
2019-01-23T00:23:41.314Z,7.75
2019-01-23T00:24:20.710Z,49.13
2019-01-23T00:25:00.119Z,17.90
2019-01-23T00:25:39.747Z,16.53
2019-01-23T00:26:19.093Z,34.73
2019-01-23T00:26:57.973Z,17.83
2019-01-23T00:27:37.597Z,21.70
2019-01-23T00:28:16.381Z,29.77
2019-01-23T00:28:55.359Z,19.45
2019-01-23T00:29:34.106Z,21.57
2019-01-23T00:30:12.966Z,28.77
2019-01-23T00:30:52.078Z,25.00
2019-01-23T00:31:31.535Z,31.33
2019-01-23T00:32:10.855Z,21.27
2019-01-23T00:32:49.929Z,24.33
2019-01-23T00:33:29.228Z,33.53
2019-01-23T00:34:08.065Z,30.97
2019-01-23T00:34:46.812Z,25.50
2019-01-23T00:35:25.585Z,38.23
2019-01-23T00:36:04.601Z,19.37
2019-01-23T00:36:43.547Z,28.93
2019-01-23T00:37:22.240Z,37.33
2019-01-23T00:38:01.430Z,46.63
2019-01-23T00:38:40.695Z,28.33
2019-01-23T00:39:19.939Z,64.43
2019-01-23T00:39:58.830Z,38.60
2019-01-23T00:40:37.588Z,41.87
2019-01-23T00:41:17.574Z,76.70
2019-01-23T00:41:56.326Z,38.63
2019-01-23T00:42:35.113Z,31.50
2019-01-23T00:43:14.389Z,33.98
2019-01-23T00:43:53.517Z,20.90
2019-01-23T00:44:32.622Z,18.87
2019-01-23T00:45:12.183Z,17.98
2019-01-23T00:45:50.986Z,24.23
2019-01-23T00:46:30.195Z,23.98
2019-01-23T00:47:09.665Z,27.13
2019-01-23T00:47:48.440Z,14.30
2019-01-23T00:48:27.157Z,20.20
2019-01-23T00:49:05.893Z,21.77
2019-01-23T00:49:44.863Z,27.37
2019-01-23T00:50:24.236Z,32.95
2019-01-23T00:51:03.221Z,23.05
2019-01-23T00:51:43.489Z,40.23
2019-01-23T00:52:22.862Z,42.58
2019-01-23T00:53:02.126Z,25.72
2019-01-23T00:53:41.227Z,26.30
2019-01-23T00:54:20.583Z,29.87
2019-01-23T00:55:00.067Z,50.75
2019-01-23T00:55:38.772Z,35.23
2019-01-23T00:56:17.485Z,26.97
2019-01-23T00:56:56.362Z,28.95
2019-01-23T00:57:35.616Z,31.48
2019-01-23T00:58:15.131Z,26.85
2019-01-23T00:58:54.293Z,34.53
2019-01-23T00:59:33.899Z,15.93
2019-01-23T01:00:17.288Z,30.17
2019-01-23T01:00:56.069Z,31.93
2019-01-23T01:01:35.448Z,24.23
2019-01-23T01:02:14.952Z,26.25
2019-01-23T01:02:53.552Z,22.37
2019-01-23T01:03:32.675Z,25.92
2019-01-23T01:04:11.894Z,23.25
2019-01-23T01:04:50.994Z,17.32
2019-01-23T01:05:29.660Z,22.82
2019-01-23T01:06:08.493Z,19.07
2019-01-23T01:06:47.202Z,16.52
2019-01-23T01:07:25.938Z,19.42
2019-01-23T01:08:05.178Z,20.20
2019-01-23T01:08:43.800Z,19.90
2019-01-23T01:09:23.150Z,17.60
2019-01-23T01:10:02.355Z,19.65
2019-01-23T01:10:41.022Z,20.37
2019-01-23T01:11:20.160Z,21.40
2019-01-23T01:11:58.815Z,22.87
2019-01-23T01:12:37.492Z,18.00
2019-01-23T01:13:16.100Z,22.35
2019-01-23T01:13:55.480Z,25.48
2019-01-23T01:14:34.679Z,15.30
2019-01-23T01:15:14.050Z,17.75
2019-01-23T01:15:53.358Z,15.58
2019-01-23T01:16:32.866Z,17.17
2019-01-23T01:17:12.335Z,15.53
2019-01-23T01:17:51.841Z,21.10
2019-01-23T01:18:30.784Z,16.35
2019-01-23T01:19:09.381Z,20.65
2019-01-23T01:19:47.987Z,17.23
2019-01-23T01:20:27.110Z,15.00
2019-01-23T01:21:05.774Z,13.65
2019-01-23T01:21:45.189Z,14.38
2019-01-23T01:22:24.414Z,13.05
2019-01-23T01:23:03.634Z,19.02
2019-01-23T01:23:43.229Z,18.75
2019-01-23T01:24:22.547Z,13.83
2019-01-23T01:25:01.942Z,13.55
2019-01-23T01:25:40.588Z,15.47
2019-01-23T01:26:19.248Z,13.23
2019-01-23T01:26:58.261Z,20.08
2019-01-23T01:27:37.214Z,16.27
2019-01-23T01:28:16.481Z,17.20
2019-01-23T01:28:56.125Z,13.80
2019-01-23T01:29:35.211Z,16.97
2019-01-23T01:30:18.493Z,17.60
2019-01-23T01:30:57.304Z,14.10
2019-01-23T01:31:35.946Z,19.70
2019-01-23T01:32:15.440Z,17.15
2019-01-23T01:32:54.484Z,14.80
2019-01-23T01:33:34.122Z,13.68
2019-01-23T01:34:13.645Z,17.45
2019-01-23T01:34:53.128Z,14.47
2019-01-23T01:35:32.616Z,13.45
2019-01-23T01:36:11.214Z,16.93
2019-01-23T01:36:49.894Z,14.90
2019-01-23T01:37:28.786Z,16.15
2019-01-23T01:38:07.979Z,14.23
2019-01-23T01:38:47.431Z,13.73
2019-01-23T01:39:26.841Z,11.75
2019-01-23T01:40:06.093Z,16.97
2019-01-23T01:40:45.018Z,14.13
2019-01-23T01:41:24.433Z,13.40
2019-01-23T01:42:03.117Z,21.93
2019-01-23T01:42:41.867Z,12.67
2019-01-23T01:43:20.456Z,12.03
2019-01-23T01:43:59.273Z,17.37
2019-01-23T01:44:38.763Z,14.40
2019-01-23T01:45:18.413Z,13.93
2019-01-23T01:46:01.360Z,14.07
2019-01-23T01:46:40.065Z,16.53
2019-01-23T01:47:19.205Z,17.70
2019-01-23T01:47:58.531Z,13.73
2019-01-23T01:48:37.856Z,16.07
2019-01-23T01:49:17.116Z,13.07
2019-01-23T01:49:56.453Z,12.67
2019-01-23T01:50:35.925Z,12.18
2019-01-23T01:51:15.145Z,17.10
2019-01-23T01:51:54.506Z,13.85
2019-01-23T01:52:33.905Z,11.33
2019-01-23T01:53:12.545Z,13.63
2019-01-23T01:53:52.037Z,11.38
2019-01-23T01:54:30.709Z,17.32
2019-01-23T01:55:10.220Z,13.17
2019-01-23T01:55:49.318Z,11.20
2019-01-23T01:56:28.681Z,12.78
2019-01-23T01:57:07.925Z,10.85
2019-01-23T01:57:47.035Z,12.03
2019-01-23T01:58:26.279Z,12.33
2019-01-23T01:59:05.481Z,16.87
2019-01-23T01:59:44.134Z,12.93
2019-01-23T02:00:24.705Z,14.20
2019-01-23T02:01:03.368Z,9.85
2019-01-23T02:01:42.028Z,12.25
2019-01-23T02:02:20.818Z,13.40
2019-01-23T02:03:00.072Z,12.27
2019-01-23T02:03:39.584Z,11.15
2019-01-23T02:04:18.912Z,12.90
2019-01-23T02:04:57.594Z,11.78
2019-01-23T02:05:36.820Z,11.20
2019-01-23T02:06:15.623Z,13.20
2019-01-23T02:06:54.311Z,12.20
2019-01-23T02:07:32.921Z,18.25
2019-01-23T02:08:11.813Z,12.00
2019-01-23T02:08:50.982Z,13.40
2019-01-23T02:09:35.451Z,10.43
2019-01-23T02:10:12.423Z,12.50
2019-01-23T02:10:51.557Z,11.53
2019-01-23T02:11:30.679Z,12.85
2019-01-23T02:12:10.112Z,12.70
2019-01-23T02:12:49.362Z,12.67
2019-01-23T02:13:28.830Z,10.50
2019-01-23T02:14:08.186Z,14.37
2019-01-23T02:14:47.567Z,14.07
2019-01-23T02:15:26.927Z,15.35
2019-01-23T02:16:05.677Z,10.35
2019-01-23T02:16:44.831Z,13.00
2019-01-23T02:17:23.573Z,13.40
2019-01-23T02:18:02.587Z,12.35
2019-01-23T02:18:42.189Z,14.53
2019-01-23T02:19:21.168Z,11.47
2019-01-23T02:20:00.476Z,9.90
2019-01-23T02:20:39.653Z,13.70
2019-01-23T02:21:19.078Z,15.37
2019-01-23T02:21:58.325Z,10.60
2019-01-23T02:22:37.612Z,13.65
2019-01-23T02:23:17.100Z,13.60
2019-01-23T02:23:55.697Z,16.07
2019-01-23T02:24:34.856Z,12.33
2019-01-23T02:25:13.825Z,16.17
2019-01-23T02:25:52.840Z,12.63
2019-01-23T02:26:31.871Z,10.80
2019-01-23T02:27:11.226Z,11.00
2019-01-23T02:27:50.447Z,11.50
2019-01-23T02:28:29.837Z,15.25
2019-01-23T02:29:09.620Z,13.20
2019-01-23T02:29:49.091Z,10.93
2019-01-23T02:30:29.267Z,13.97
2019-01-23T02:31:08.740Z,13.13
2019-01-23T02:31:48.057Z,11.30
2019-01-23T02:32:27.077Z,12.50
2019-01-23T02:33:05.833Z,13.25
2019-01-23T02:33:45.352Z,13.78
2019-01-23T02:34:24.038Z,22.98
2019-01-23T02:35:02.988Z,13.13
2019-01-23T02:35:42.346Z,17.53
2019-01-23T02:36:21.472Z,11.90
2019-01-23T02:37:00.782Z,12.50
2019-01-23T02:37:39.884Z,16.57
2019-01-23T02:38:18.508Z,11.23
2019-01-23T02:38:58.013Z,14.43
2019-01-23T02:39:37.161Z,11.57
2019-01-23T02:40:18.466Z,10.97
2019-01-23T02:40:57.290Z,13.87
2019-01-23T02:41:35.933Z,13.53
2019-01-23T02:42:15.500Z,15.83
2019-01-23T02:42:54.387Z,12.03
2019-01-23T02:43:33.363Z,11.20
2019-01-23T02:44:12.495Z,15.53
2019-01-23T02:44:51.196Z,12.20
2019-01-23T02:45:30.476Z,15.63
2019-01-23T02:46:09.559Z,14.27
2019-01-23T02:46:48.478Z,14.07
2019-01-23T02:47:27.516Z,10.90
2019-01-23T02:48:06.781Z,12.33
2019-01-23T02:48:45.551Z,10.63
2019-01-23T02:49:24.362Z,14.40
2019-01-23T02:50:03.622Z,13.08
2019-01-23T02:50:42.469Z,10.93
2019-01-23T02:51:21.979Z,12.50
2019-01-23T02:52:00.749Z,12.93
2019-01-23T02:52:40.080Z,12.90
2019-01-23T02:53:18.856Z,11.10
2019-01-23T02:53:58.146Z,11.90
2019-01-23T02:54:36.771Z,17.80
2019-01-23T02:55:15.316Z,13.40
2019-01-23T02:55:54.369Z,12.77
2019-01-23T02:56:33.823Z,13.63
2019-01-23T02:57:12.801Z,12.90
2019-01-23T02:57:51.518Z,17.43
2019-01-23T02:58:30.845Z,13.33
2019-01-23T02:59:17.181Z,14.07
2019-01-23T02:59:50.050Z,11.10
2019-01-23T03:00:28.768Z,11.07
2019-01-23T03:01:07.511Z,15.20
2019-01-23T03:01:46.341Z,13.73
2019-01-23T03:02:25.222Z,14.77
2019-01-23T03:03:04.717Z,11.90
2019-01-23T03:03:43.907Z,12.77
2019-01-23T03:04:23.265Z,11.10
2019-01-23T03:05:02.785Z,12.13
2019-01-23T03:05:41.423Z,16.00
2019-01-23T03:06:20.739Z,17.00
2019-01-23T03:06:59.425Z,11.93
2019-01-23T03:07:38.843Z,12.40
2019-01-23T03:08:17.526Z,12.27
2019-01-23T03:08:56.559Z,14.93
2019-01-23T03:09:35.139Z,15.70
2019-01-23T03:10:15.568Z,13.80
2019-01-23T03:10:54.754Z,13.80
2019-01-23T03:11:33.446Z,15.07
2019-01-23T03:12:13.136Z,18.37
2019-01-23T03:12:51.782Z,13.90
2019-01-23T03:13:30.754Z,12.10
2019-01-23T03:14:09.887Z,14.17
2019-01-23T03:14:48.999Z,17.27
2019-01-23T03:15:27.602Z,16.53
2019-01-23T03:16:06.487Z,17.47
2019-01-23T03:16:45.453Z,14.97
2019-01-23T03:17:24.797Z,13.77
2019-01-23T03:18:04.098Z,14.03
2019-01-23T03:18:43.302Z,14.77
2019-01-23T03:19:22.751Z,20.43
2019-01-23T03:20:01.392Z,19.30
2019-01-23T03:20:41.409Z,14.23
2019-01-23T03:21:20.397Z,11.50
2019-01-23T03:21:59.072Z,15.73
2019-01-23T03:22:37.731Z,16.30
2019-01-23T03:23:16.369Z,12.63
2019-01-23T03:23:55.638Z,16.30
2019-01-23T03:24:34.106Z,18.10
2019-01-23T03:25:13.846Z,13.90
2019-01-23T03:25:53.272Z,16.07
2019-01-23T03:26:32.734Z,15.97
2019-01-23T03:27:12.273Z,12.97
2019-01-23T03:27:50.928Z,13.90
2019-01-23T03:28:30.156Z,14.53
2019-01-23T03:29:08.839Z,16.80
2019-01-23T03:29:47.755Z,16.20
2019-01-23T03:30:27.347Z,14.20
2019-01-23T03:31:06.460Z,15.20
2019-01-23T03:31:45.537Z,16.03
2019-01-23T03:32:24.170Z,17.37
2019-01-23T03:33:02.840Z,17.33
2019-01-23T03:33:41.439Z,14.43
2019-01-23T03:34:20.457Z,12.40
2019-01-23T03:34:59.112Z,14.30
2019-01-23T03:35:38.181Z,14.10
2019-01-23T03:36:16.918Z,14.17
2019-01-23T03:36:56.512Z,12.73
2019-01-23T03:37:35.943Z,12.20
2019-01-23T03:38:15.656Z,15.65
2019-01-23T03:38:55.045Z,15.57
2019-01-23T03:39:34.373Z,17.30
2019-01-23T03:40:16.725Z,12.40
2019-01-23T03:40:56.070Z,17.33
2019-01-23T03:41:35.511Z,17.70
2019-01-23T03:42:15.665Z,15.93
2019-01-23T03:42:54.282Z,13.33
2019-01-23T03:43:33.714Z,16.20
2019-01-23T03:44:12.607Z,13.87
2019-01-23T03:44:51.253Z,17.43
2019-01-23T03:45:30.276Z,19.30
2019-01-23T03:46:09.152Z,18.20
2019-01-23T03:46:48.470Z,14.10
2019-01-23T03:47:27.913Z,12.87
2019-01-23T03:48:07.273Z,14.10
2019-01-23T03:48:47.026Z,13.37
2019-01-23T03:49:26.242Z,13.87
2019-01-23T03:50:05.618Z,15.40
2019-01-23T03:50:44.672Z,18.33
2019-01-23T03:51:23.300Z,12.67
2019-01-23T03:52:02.216Z,14.50
2019-01-23T03:52:40.934Z,15.73
2019-01-23T03:53:19.600Z,18.37
2019-01-23T03:53:58.807Z,14.63
2019-01-23T03:54:38.001Z,17.27
2019-01-23T03:55:16.971Z,13.07
2019-01-23T03:55:56.235Z,14.50
2019-01-23T03:56:35.746Z,12.90
2019-01-23T03:57:14.820Z,15.40
2019-01-23T03:57:53.478Z,13.63
2019-01-23T03:58:32.083Z,13.63
2019-01-23T03:59:10.999Z,13.67
2019-01-23T03:59:50.042Z,18.30
2019-01-23T04:00:47.201Z,15.27
2019-01-23T04:01:26.497Z,17.23
2019-01-23T04:02:05.632Z,10.93
2019-01-23T04:02:44.588Z,15.57
2019-01-23T04:03:23.253Z,15.30
2019-01-23T04:04:01.844Z,19.40
2019-01-23T04:04:40.867Z,16.10
2019-01-23T04:05:19.908Z,16.80
2019-01-23T04:05:59.063Z,12.90
2019-01-23T04:06:38.294Z,16.10
2019-01-23T04:07:17.504Z,18.00
2019-01-23T04:07:56.199Z,13.70
2019-01-23T04:08:35.454Z,13.87
2019-01-23T04:09:14.846Z,13.80
2019-01-23T04:09:54.375Z,15.27
2019-01-23T04:10:33.004Z,11.87
2019-01-23T04:11:11.599Z,14.43
2019-01-23T04:11:50.479Z,12.97
2019-01-23T04:12:29.937Z,11.90
2019-01-23T04:13:08.956Z,11.57
2019-01-23T04:13:47.830Z,12.43
2019-01-23T04:14:26.601Z,13.50
2019-01-23T04:15:05.913Z,13.07
2019-01-23T04:15:44.566Z,15.10
2019-01-23T04:16:23.179Z,11.40
2019-01-23T04:17:02.346Z,14.87
2019-01-23T04:17:41.493Z,16.50
2019-01-23T04:18:20.211Z,11.77
2019-01-23T04:18:59.433Z,16.00
2019-01-23T04:19:38.849Z,16.57
2019-01-23T04:20:22.394Z,16.47
2019-01-23T04:21:01.147Z,12.50
2019-01-23T04:21:40.282Z,12.97
2019-01-23T04:22:19.634Z,14.00
2019-01-23T04:22:58.871Z,11.30
2019-01-23T04:23:38.115Z,11.47
2019-01-23T04:24:17.392Z,12.90
2019-01-23T04:24:56.749Z,11.97
2019-01-23T04:25:36.016Z,12.13
2019-01-23T04:26:15.042Z,12.88
2019-01-23T04:26:54.444Z,12.43
2019-01-23T04:27:33.268Z,17.30
2019-01-23T04:28:12.194Z,15.20
2019-01-23T04:28:50.911Z,13.47
2019-01-23T04:29:30.076Z,15.30
2019-01-23T04:30:09.782Z,14.57
2019-01-23T04:30:48.548Z,16.00
2019-01-23T04:31:27.943Z,17.20
2019-01-23T04:32:07.303Z,14.40
2019-01-23T04:32:46.477Z,15.90
2019-01-23T04:33:25.602Z,13.90
2019-01-23T04:34:04.269Z,11.10
2019-01-23T04:34:43.237Z,15.70
2019-01-23T04:35:22.226Z,14.17
2019-01-23T04:36:01.346Z,14.83
2019-01-23T04:36:40.609Z,15.03
2019-01-23T04:37:19.900Z,14.30
2019-01-23T04:37:59.223Z,13.10
2019-01-23T04:38:38.546Z,19.53
2019-01-23T04:39:17.902Z,16.47
2019-01-23T04:39:57.235Z,16.20
2019-01-23T04:40:36.335Z,15.17
2019-01-23T04:41:14.970Z,14.20
2019-01-23T04:41:53.626Z,18.40
2019-01-23T04:42:32.836Z,16.80
2019-01-23T04:43:12.190Z,13.03
2019-01-23T04:43:51.282Z,17.60
2019-01-23T04:44:30.398Z,18.90
2019-01-23T04:45:10.353Z,14.83
2019-01-23T04:45:49.057Z,13.60
2019-01-23T04:46:28.322Z,12.90
2019-01-23T04:47:06.919Z,13.53
2019-01-23T04:47:46.309Z,21.50
2019-01-23T04:48:24.911Z,12.67
2019-01-23T04:49:03.904Z,14.83
2019-01-23T04:49:42.948Z,12.50
2019-01-23T04:50:22.155Z,13.80
2019-01-23T04:51:28.767Z,13.70
2019-01-23T04:52:15.929Z,13.60
2019-01-23T04:53:19.589Z,16.47
2019-01-23T04:53:58.512Z,17.83
2019-01-23T04:54:37.177Z,17.37
2019-01-23T04:55:15.897Z,16.53
2019-01-23T04:55:54.505Z,13.60
2019-01-23T04:56:34.405Z,18.27
2019-01-23T04:57:13.706Z,13.53
2019-01-23T04:57:52.823Z,14.17
2019-01-23T04:58:31.882Z,13.40
2019-01-23T04:59:10.778Z,16.30
2019-01-23T04:59:49.358Z,13.27
2019-01-23T05:00:29.102Z,13.33
2019-01-23T05:01:07.686Z,13.30
2019-01-23T05:01:46.912Z,14.63
2019-01-23T05:02:25.571Z,14.83
2019-01-23T05:03:04.602Z,13.73
2019-01-23T05:03:43.754Z,15.20
2019-01-23T05:04:22.957Z,13.67
2019-01-23T05:05:02.439Z,14.23
2019-01-23T05:05:42.315Z,14.50
2019-01-23T05:06:20.920Z,14.43
2019-01-23T05:06:59.842Z,12.90
2019-01-23T05:07:39.495Z,15.93
2019-01-23T05:08:18.178Z,12.97
2019-01-23T05:08:57.409Z,12.80
2019-01-23T05:09:42.017Z,18.23
2019-01-23T05:10:42.159Z,13.87
2019-01-23T05:11:27.046Z,14.77
2019-01-23T05:12:06.088Z,12.50
2019-01-23T05:12:45.621Z,13.10
2019-01-23T05:13:24.791Z,14.97
2019-01-23T05:14:09.269Z,12.63
2019-01-23T05:14:48.151Z,13.80
2019-01-23T05:15:26.819Z,11.60
2019-01-23T05:16:06.690Z,14.50
2019-01-23T05:16:45.439Z,12.80
2019-01-23T05:17:29.012Z,14.33
2019-01-23T05:18:10.026Z,16.10
2019-01-23T05:18:48.770Z,12.70
2019-01-23T05:19:29.552Z,14.50
2019-01-23T05:20:13.810Z,14.17
2019-01-23T05:20:52.605Z,14.73
2019-01-23T05:21:31.461Z,12.60
2019-01-23T05:22:10.155Z,18.20
2019-01-23T05:22:49.424Z,13.63
2019-01-23T05:23:28.309Z,14.30
2019-01-23T05:24:07.793Z,14.13
2019-01-23T05:24:46.782Z,13.00
2019-01-23T05:25:26.597Z,13.87
2019-01-23T05:26:05.291Z,13.90
2019-01-23T05:27:03.709Z,14.33
2019-01-23T05:27:43.324Z,12.10
2019-01-23T05:28:22.629Z,13.17
2019-01-23T05:29:01.898Z,14.13
2019-01-23T05:29:40.811Z,11.73
2019-01-23T05:30:24.853Z,16.10
2019-01-23T05:31:04.717Z,13.37
2019-01-23T05:31:43.406Z,12.73
2019-01-23T05:32:24.698Z,12.27
2019-01-23T05:33:08.043Z,12.30
2019-01-23T05:33:52.031Z,14.63
2019-01-23T05:34:30.939Z,12.90
2019-01-23T05:35:14.226Z,14.73
2019-01-23T05:35:52.916Z,12.30
2019-01-23T05:36:32.262Z,15.20
2019-01-23T05:37:11.498Z,12.00
2019-01-23T05:37:53.785Z,12.37
2019-01-23T05:38:34.002Z,14.53
2019-01-23T05:39:13.922Z,11.80
2019-01-23T05:39:52.897Z,11.33
2019-01-23T05:40:32.502Z,11.67
2019-01-23T05:41:11.321Z,12.83
2019-01-23T05:41:53.588Z,11.20
2019-01-23T05:42:34.845Z,11.63
2019-01-23T05:43:13.946Z,13.27
2019-01-23T05:43:52.987Z,16.50
2019-01-23T05:44:31.634Z,10.43
2019-01-23T05:45:10.634Z,12.90
2019-01-23T05:45:49.286Z,12.40
2019-01-23T05:46:27.931Z,11.93
2019-01-23T05:47:07.431Z,13.67
2019-01-23T05:47:46.614Z,12.87
2019-01-23T05:48:27.184Z,11.60
2019-01-23T05:49:06.354Z,12.47
2019-01-23T05:49:45.739Z,11.60
2019-01-23T05:50:25.068Z,14.00
2019-01-23T05:51:22.444Z,14.07
2019-01-23T05:52:01.536Z,15.13
2019-01-23T05:52:40.282Z,13.80
2019-01-23T05:53:19.094Z,14.53
2019-01-23T05:53:58.509Z,11.60
2019-01-23T05:54:37.415Z,12.70
2019-01-23T05:55:18.357Z,12.77
2019-01-23T05:55:57.425Z,11.47
2019-01-23T05:56:36.927Z,12.50
2019-01-23T05:57:16.204Z,14.37
2019-01-23T05:57:55.473Z,14.60
2019-01-23T05:58:34.878Z,11.43
2019-01-23T05:59:13.666Z,12.77
2019-01-23T05:59:52.304Z,11.27
2019-01-23T06:00:31.006Z,16.50
2019-01-23T06:01:09.766Z,15.63
2019-01-23T06:01:48.917Z,11.47
2019-01-23T06:02:27.841Z,11.33
2019-01-23T06:03:07.221Z,15.93
2019-01-23T06:03:46.466Z,14.53
2019-01-23T06:04:25.597Z,15.20
2019-01-23T06:05:05.035Z,11.07
2019-01-23T06:05:43.853Z,11.77
2019-01-23T06:06:23.097Z,12.40
2019-01-23T06:07:01.784Z,10.87
2019-01-23T06:07:40.402Z,12.90
2019-01-23T06:08:19.497Z,12.13
2019-01-23T06:08:59.066Z,15.20
2019-01-23T06:09:38.854Z,14.07
2019-01-23T06:10:18.094Z,14.00
2019-01-23T06:10:56.665Z,11.33
2019-01-23T06:11:35.429Z,10.93
2019-01-23T06:12:14.949Z,11.20
2019-01-23T06:12:53.581Z,12.67
2019-01-23T06:13:32.643Z,13.20
2019-01-23T06:14:11.341Z,12.73
2019-01-23T06:14:50.336Z,10.67
2019-01-23T06:15:29.882Z,13.07
2019-01-23T06:16:09.111Z,10.60
2019-01-23T06:16:48.705Z,11.40
2019-01-23T06:17:27.830Z,12.73
2019-01-23T06:18:06.737Z,11.83
2019-01-23T06:18:45.810Z,14.40
2019-01-23T06:19:25.145Z,9.63
2019-01-23T06:20:03.804Z,11.37
2019-01-23T06:20:42.625Z,11.10
2019-01-23T06:21:21.281Z,10.73
2019-01-23T06:22:00.913Z,11.33
2019-01-23T06:22:40.209Z,11.73
2019-01-23T06:23:19.602Z,12.27
2019-01-23T06:23:59.776Z,11.67
2019-01-23T06:24:39.342Z,9.63
2019-01-23T06:25:18.540Z,12.90
2019-01-23T06:25:58.177Z,9.53
2019-01-23T06:26:37.382Z,11.23
2019-01-23T06:27:16.206Z,11.53
2019-01-23T06:27:54.964Z,9.93
2019-01-23T06:28:33.696Z,10.67
2019-01-23T06:29:12.713Z,10.47
2019-01-23T06:29:51.746Z,10.73
2019-01-23T06:30:30.908Z,13.90
2019-01-23T06:31:09.904Z,11.20
2019-01-23T06:31:49.311Z,11.50
2019-01-23T06:32:28.312Z,8.67
2019-01-23T06:33:07.668Z,9.97
2019-01-23T06:33:46.345Z,13.63
2019-01-23T06:34:24.987Z,9.40
2019-01-23T06:35:03.960Z,10.70
2019-01-23T06:35:42.613Z,9.43
2019-01-23T06:36:21.821Z,13.23
2019-01-23T06:37:01.008Z,9.47
2019-01-23T06:37:40.065Z,12.77
2019-01-23T06:38:19.376Z,8.87
2019-01-23T06:39:03.851Z,8.87
2019-01-23T06:39:46.430Z,8.77
2019-01-23T06:40:27.364Z,8.70
2019-01-23T06:41:06.266Z,7.73
2019-01-23T06:41:44.998Z,8.43
2019-01-23T06:42:26.183Z,8.90
2019-01-23T06:43:04.952Z,8.23
2019-01-23T06:43:43.676Z,9.63
2019-01-23T06:44:25.609Z,8.97
2019-01-23T06:45:04.433Z,12.23
2019-01-23T06:45:43.570Z,9.07
2019-01-23T06:46:25.383Z,8.00
2019-01-23T06:47:04.364Z,7.97
2019-01-23T06:47:43.442Z,10.57
2019-01-23T06:48:22.245Z,8.50
2019-01-23T06:49:01.525Z,8.27
2019-01-23T06:49:40.858Z,7.50
2019-01-23T06:50:22.705Z,7.97
2019-01-23T06:51:01.998Z,7.43
2019-01-23T06:51:41.398Z,7.20
2019-01-23T06:52:20.077Z,7.70
2019-01-23T06:52:59.368Z,9.17
2019-01-23T06:53:38.242Z,7.50
2019-01-23T06:54:17.641Z,8.00
2019-01-23T06:54:56.381Z,8.00
2019-01-23T06:55:35.031Z,7.83
2019-01-23T06:56:14.917Z,8.80
2019-01-23T06:56:54.079Z,10.00
2019-01-23T06:57:33.421Z,7.93
2019-01-23T06:58:12.459Z,7.27
2019-01-23T06:58:52.206Z,7.23
2019-01-23T06:59:31.613Z,6.40
2019-01-23T07:00:17.088Z,7.53
2019-01-23T07:00:53.591Z,6.63
2019-01-23T07:01:32.941Z,6.90
2019-01-23T07:02:31.628Z,7.10
2019-01-23T07:03:23.445Z,6.77
2019-01-23T07:04:02.921Z,7.60
2019-01-23T07:04:45.362Z,7.30
2019-01-23T07:05:25.777Z,6.47
2019-01-23T07:06:08.073Z,6.97
2019-01-23T07:06:52.989Z,6.80
2019-01-23T07:07:39.108Z,7.17
2019-01-23T07:08:18.896Z,6.40
2019-01-23T07:09:01.660Z,8.77
2019-01-23T07:09:47.414Z,7.53
2019-01-23T07:10:31.309Z,8.00
2019-01-23T07:11:23.644Z,6.87
2019-01-23T07:12:07.764Z,6.80
2019-01-23T07:12:48.076Z,8.13
2019-01-23T07:13:28.773Z,6.05
2019-01-23T07:14:15.572Z,7.67
2019-01-23T07:14:59.771Z,8.38
2019-01-23T07:15:42.610Z,6.73
2019-01-23T07:16:26.886Z,6.37
2019-01-23T07:17:12.815Z,6.20
2019-01-23T07:17:57.843Z,8.20
2019-01-23T07:18:41.231Z,7.67
2019-01-23T07:19:28.514Z,6.62
2019-01-23T07:20:15.940Z,6.50
2019-01-23T07:21:00.528Z,6.15
2019-01-23T07:21:44.095Z,6.10
2019-01-23T07:22:29.386Z,6.95
2019-01-23T07:23:15.514Z,7.08
2019-01-23T07:24:07.679Z,5.87
2019-01-23T07:24:56.169Z,6.22
2019-01-23T07:25:42.259Z,5.85
2019-01-23T07:26:26.417Z,6.13
2019-01-23T07:27:14.277Z,5.95
2019-01-23T07:27:59.593Z,9.00
2019-01-23T07:28:49.303Z,5.77
2019-01-23T07:29:31.492Z,6.33
2019-01-23T07:30:24.390Z,5.45
2019-01-23T07:31:06.773Z,5.85
2019-01-23T07:31:46.540Z,7.97
2019-01-23T07:32:30.674Z,6.03
2019-01-23T07:33:15.729Z,6.28
2019-01-23T07:33:57.911Z,7.12
2019-01-23T07:34:42.475Z,6.17
2019-01-23T07:35:27.558Z,5.20
2019-01-23T07:36:13.808Z,7.45
2019-01-23T07:36:57.370Z,5.58
2019-01-23T07:37:44.398Z,6.40
2019-01-23T07:38:27.533Z,7.53
2019-01-23T07:39:07.889Z,7.25
2019-01-23T07:39:52.746Z,5.70
2019-01-23T07:40:31.997Z,8.83
2019-01-23T07:41:21.709Z,6.30
2019-01-23T07:42:00.417Z,6.00
2019-01-23T07:42:39.165Z,7.08
2019-01-23T07:43:18.136Z,6.40
2019-01-23T07:43:57.511Z,7.20
2019-01-23T07:44:36.234Z,6.67
2019-01-23T07:45:16.107Z,5.87
2019-01-23T07:45:55.406Z,5.78
2019-01-23T07:46:38.900Z,5.67
2019-01-23T07:47:22.605Z,9.88
2019-01-23T07:48:07.881Z,6.70
2019-01-23T07:48:52.760Z,6.03
2019-01-23T07:49:36.578Z,6.40
2019-01-23T07:50:19.466Z,6.65
2019-01-23T07:51:01.433Z,6.60
2019-01-23T07:51:42.535Z,6.20
2019-01-23T07:52:22.316Z,5.92
2019-01-23T07:53:06.855Z,10.05
2019-01-23T07:53:52.252Z,5.50
2019-01-23T07:54:37.760Z,6.45
2019-01-23T07:55:22.174Z,6.17
2019-01-23T07:56:05.505Z,9.08
2019-01-23T07:56:47.677Z,5.58
2019-01-23T07:57:34.597Z,7.67
2019-01-23T07:58:20.523Z,6.00
2019-01-23T07:59:04.933Z,6.45
2019-01-23T07:59:47.376Z,9.93
2019-01-23T08:00:32.748Z,6.42
2019-01-23T08:01:16.116Z,6.15
2019-01-23T08:01:55.499Z,7.22
2019-01-23T08:02:38.219Z,6.90
2019-01-23T08:03:19.873Z,6.62
2019-01-23T08:04:02.929Z,5.95
2019-01-23T08:04:46.766Z,6.07
2019-01-23T08:05:32.287Z,6.50
2019-01-23T08:06:15.538Z,6.12
2019-01-23T08:06:54.926Z,6.55
2019-01-23T08:07:38.868Z,6.20
2019-01-23T08:08:23.218Z,5.50
2019-01-23T08:09:06.282Z,6.80
2019-01-23T08:09:52.136Z,5.50
2019-01-23T08:10:35.928Z,5.80
2019-01-23T08:11:16.965Z,7.10
2019-01-23T08:12:00.859Z,5.92
2019-01-23T08:12:46.035Z,6.37
2019-01-23T08:13:26.296Z,6.20
2019-01-23T08:14:06.102Z,6.10
2019-01-23T08:14:49.703Z,7.12
2019-01-23T08:15:40.603Z,6.30
2019-01-23T08:16:22.473Z,6.92
2019-01-23T08:17:01.241Z,6.30
2019-01-23T08:17:40.507Z,7.78
2019-01-23T08:18:19.172Z,6.72
2019-01-23T08:18:58.635Z,6.45
2019-01-23T08:19:37.933Z,6.45
2019-01-23T08:20:18.604Z,7.20
2019-01-23T08:20:57.455Z,7.87
2019-01-23T08:21:36.753Z,7.30
2019-01-23T08:22:15.441Z,8.18
2019-01-23T08:22:54.821Z,6.40
2019-01-23T08:23:33.599Z,6.70
2019-01-23T08:24:12.266Z,7.45
2019-01-23T08:24:51.198Z,5.75
2019-01-23T08:25:30.458Z,7.50
2019-01-23T08:26:09.883Z,7.30
2019-01-23T08:26:48.888Z,8.08
2019-01-23T08:27:27.608Z,7.40
2019-01-23T08:28:07.223Z,8.38
2019-01-23T08:28:46.445Z,9.90
2019-01-23T08:29:25.194Z,6.17
2019-01-23T08:30:04.222Z,6.97
2019-01-23T08:30:42.912Z,6.40
2019-01-23T08:31:21.984Z,7.50
2019-01-23T08:32:01.251Z,7.00
2019-01-23T08:32:40.096Z,19.53
2019-01-23T08:33:19.554Z,6.07
2019-01-23T08:33:59.106Z,5.87
2019-01-23T08:34:37.638Z,6.23
2019-01-23T08:35:16.863Z,6.70
2019-01-23T08:35:55.486Z,6.17
2019-01-23T08:36:34.789Z,6.80
2019-01-23T08:37:13.420Z,7.10
2019-01-23T08:37:52.418Z,8.60
2019-01-23T08:38:31.702Z,6.63
2019-01-23T08:39:12.342Z,7.50
2019-01-23T08:39:51.400Z,7.40
2019-01-23T08:40:30.820Z,7.27
2019-01-23T08:41:10.168Z,6.20